Portada
METAR-TAF:

METAR-TAF

Aeropuertos :

Aeropuerto de Palermo-Punta Raisi

Palermo, Italia

latitud: 38-11N, longitud: 013-06E, altitud: 21 m

Observación

El informe se hizo hace 24 minutos, a las 12:20 UTC
Viento 13 kt del norte
Temperatura 15°C
Humedad 59%
Presión 1015 hPa
Visibilidad 10 km o más
Escasas nubes a una altura de 3000 ft

METAR: LICJ 041220Z 36013KT 9999 FEW030 15/07 Q1015

Hora: 14:44 (12:44 UTC)

Pronóstico

El informe se hizo hace 1 hora y 44 minutos, a las 11:00 UTC
Pronóstico válido del 04 a las 12 UTC al 05 a las 12 UTC
Viento 13 kt del noreste
Visibilidad 10 km o más
sin nubes por debajo de 1500 m y sin presencia de cumulonimbus.

TAF: LICJ 041100Z 0412/0512 04013KT CAVOK

Observaciones y pronósticos meteorológicos de más de 4000 aeropuertos (mensajes METAR y TAF).

Los puntos amarillos y rojos representan las estaciones disponibles.

Ponga el ratón en el punto deseado para ver el nombre de la estación.

Haga clic para ver las observaciones y los pronósticos meteorológicos.

Para cambiar el mapa : haga clic en los botones verdes con una cruz de color negro para hacer un zoom, en el botón verde con un guión para alejar o en las flechas verdes para mapas adyacentes.


METAR-TAF: